sensor_id;sensor_type;location;lat;lon;timestamp;pressure;altitude;pressure_sealevel;temperature;humidity
53719;BME280;39616;48.872;9.390;2023-09-18T00:00:21;97701.06;;;20.70;76.12
53719;BME280;39616;48.872;9.390;2023-09-18T00:02:51;97697.47;;;20.62;76.53
53719;BME280;39616;48.872;9.390;2023-09-18T00:05:22;97699.50;;;20.72;75.62
53719;BME280;39616;48.872;9.390;2023-09-18T00:07:52;97700.69;;;20.71;75.70
53719;BME280;39616;48.872;9.390;2023-09-18T00:10:23;97700.25;;;20.66;76.48
53719;BME280;39616;48.872;9.390;2023-09-18T00:12:53;97697.44;;;20.59;76.87
53719;BME280;39616;48.872;9.390;2023-09-18T00:15:23;97700.81;;;20.48;77.14
53719;BME280;39616;48.872;9.390;2023-09-18T00:17:54;97703.50;;;20.41;77.56
53719;BME280;39616;48.872;9.390;2023-09-18T00:20:24;97702.75;;;20.44;77.41
53719;BME280;39616;48.872;9.390;2023-09-18T00:22:58;97707.44;;;20.40;78.27
53719;BME280;39616;48.872;9.390;2023-09-18T00:25:28;97702.66;;;20.37;78.07
53719;BME280;39616;48.872;9.390;2023-09-18T00:27:59;97705.69;;;20.28;79.14
53719;BME280;39616;48.872;9.390;2023-09-18T00:30:29;97691.09;;;20.24;79.81
53719;BME280;39616;48.872;9.390;2023-09-18T00:32:59;97691.44;;;20.19;79.53
53719;BME280;39616;48.872;9.390;2023-09-18T00:35:30;97683.53;;;20.14;80.34
53719;BME280;39616;48.872;9.390;2023-09-18T00:38:00;97684.22;;;20.08;80.66
53719;BME280;39616;48.872;9.390;2023-09-18T00:40:33;97675.13;;;20.03;81.42
53719;BME280;39616;48.872;9.390;2023-09-18T00:43:04;97663.69;;;20.01;81.51
53719;BME280;39616;48.872;9.390;2023-09-18T00:45:38;97659.78;;;20.02;81.27
53719;BME280;39616;48.872;9.390;2023-09-18T00:48:10;97658.28;;;20.09;80.66
53719;BME280;39616;48.872;9.390;2023-09-18T00:50:42;97663.03;;;20.12;80.68
53719;BME280;39616;48.872;9.390;2023-09-18T00:53:16;97665.09;;;20.18;80.36
53719;BME280;39616;48.872;9.390;2023-09-18T00:55:49;97658.44;;;20.23;80.23
53719;BME280;39616;48.872;9.390;2023-09-18T00:58:21;97658.78;;;20.18;80.82
53719;BME280;39616;48.872;9.390;2023-09-18T01:00:52;97664.22;;;20.11;82.07
53719;BME280;39616;48.872;9.390;2023-09-18T01:03:23;97659.31;;;19.97;82.85
53719;BME280;39616;48.872;9.390;2023-09-18T01:05:55;97665.44;;;19.83;84.41
53719;BME280;39616;48.872;9.390;2023-09-18T01:08:25;97653.03;;;19.66;85.16
53719;BME280;39616;48.872;9.390;2023-09-18T01:13:30;97649.69;;;19.53;86.73
53719;BME280;39616;48.872;9.390;2023-09-18T01:16:17;97640.94;;;19.44;88.03
53719;BME280;39616;48.872;9.390;2023-09-18T01:18:50;97639.22;;;19.36;88.74
53719;BME280;39616;48.872;9.390;2023-09-18T01:21:21;97632.16;;;19.35;89.62
53719;BME280;39616;48.872;9.390;2023-09-18T01:23:51;97636.13;;;19.38;90.22
53719;BME280;39616;48.872;9.390;2023-09-18T01:26:22;97629.41;;;19.35;91.03
53719;BME280;39616;48.872;9.390;2023-09-18T01:28:52;97628.22;;;19.36;91.62
53719;BME280;39616;48.872;9.390;2023-09-18T01:31:22;97629.06;;;19.40;90.64
53719;BME280;39616;48.872;9.390;2023-09-18T01:33:53;97631.13;;;19.47;90.55
53719;BME280;39616;48.872;9.390;2023-09-18T01:36:24;97618.66;;;19.53;90.46
53719;BME280;39616;48.872;9.390;2023-09-18T01:38:55;97626.94;;;19.57;90.77
53719;BME280;39616;48.872;9.390;2023-09-18T01:41:25;97639.16;;;19.59;90.42
53719;BME280;39616;48.872;9.390;2023-09-18T01:43:55;97636.41;;;19.59;90.95
53719;BME280;39616;48.872;9.390;2023-09-18T01:46:26;97649.34;;;19.59;91.05
53719;BME280;39616;48.872;9.390;2023-09-18T01:48:57;97640.88;;;19.67;89.73
53719;BME280;39616;48.872;9.390;2023-09-18T01:51:27;97644.91;;;19.77;88.39
53719;BME280;39616;48.872;9.390;2023-09-18T01:53:57;97638.34;;;19.85;87.08
53719;BME280;39616;48.872;9.390;2023-09-18T01:56:27;97647.44;;;19.89;86.86
53719;BME280;39616;48.872;9.390;2023-09-18T01:58:58;97663.16;;;19.89;88.35
53719;BME280;39616;48.872;9.390;2023-09-18T02:01:28;97694.31;;;19.96;87.23
53719;BME280;39616;48.872;9.390;2023-09-18T02:04:00;97731.84;;;20.12;84.23
53719;BME280;39616;48.872;9.390;2023-09-18T02:06:30;97741.91;;;20.31;81.49
53719;BME280;39616;48.872;9.390;2023-09-18T02:09:00;97709.78;;;20.75;76.44
53719;BME280;39616;48.872;9.390;2023-09-18T02:11:31;97695.53;;;21.11;75.36
53719;BME280;39616;48.872;9.390;2023-09-18T02:14:01;97689.00;;;21.30;74.82
53719;BME280;39616;48.872;9.390;2023-09-18T02:16:35;97688.34;;;21.43;74.16
53719;BME280;39616;48.872;9.390;2023-09-18T02:19:06;97674.22;;;21.52;73.87
53719;BME280;39616;48.872;9.390;2023-09-18T02:21:37;97680.94;;;21.55;73.27
53719;BME280;39616;48.872;9.390;2023-09-18T02:24:07;97687.56;;;21.50;74.60
53719;BME280;39616;48.872;9.390;2023-09-18T02:26:38;97667.47;;;21.50;74.86
53719;BME280;39616;48.872;9.390;2023-09-18T02:29:09;97610.66;;;21.34;78.90
53719;BME280;39616;48.872;9.390;2023-09-18T02:31:44;97595.38;;;20.89;82.04
53719;BME280;39616;48.872;9.390;2023-09-18T02:34:14;97586.41;;;20.51;85.86
53719;BME280;39616;48.872;9.390;2023-09-18T02:36:44;97579.81;;;20.22;92.07
53719;BME280;39616;48.872;9.390;2023-09-18T02:39:14;97597.31;;;20.03;98.18
53719;BME280;39616;48.872;9.390;2023-09-18T02:41:45;97577.06;;;19.88;97.33
53719;BME280;39616;48.872;9.390;2023-09-18T02:44:15;97576.88;;;19.70;99.98
53719;BME280;39616;48.872;9.390;2023-09-18T02:46:46;97584.97;;;19.60;100.00
53719;BME280;39616;48.872;9.390;2023-09-18T02:49:16;97574.59;;;19.49;100.00
53719;BME280;39616;48.872;9.390;2023-09-18T02:51:46;97586.78;;;19.48;100.00
53719;BME280;39616;48.872;9.390;2023-09-18T02:54:17;97591.00;;;19.42;100.00
53719;BME280;39616;48.872;9.390;2023-09-18T02:56:47;97594.84;;;19.34;100.00
53719;BME280;39616;48.872;9.390;2023-09-18T02:59:18;97600.63;;;19.29;100.00
53719;BME280;39616;48.872;9.390;2023-09-18T03:01:48;97611.97;;;19.24;100.00
53719;BME280;39616;48.872;9.390;2023-09-18T03:04:19;97653.97;;;19.51;97.28
53719;BME280;39616;48.872;9.390;2023-09-18T03:06:49;97649.78;;;19.61;99.02
53719;BME280;39616;48.872;9.390;2023-09-18T03:09:20;97670.84;;;19.49;100.00
53719;BME280;39616;48.872;9.390;2023-09-18T03:11:51;97658.91;;;19.38;100.00
53719;BME280;39616;48.872;9.390;2023-09-18T03:14:21;97661.81;;;19.22;100.00
53719;BME280;39616;48.872;9.390;2023-09-18T03:16:52;97652.75;;;19.22;100.00
53719;BME280;39616;48.872;9.390;2023-09-18T03:19:22;97642.75;;;19.10;100.00
53719;BME280;39616;48.872;9.390;2023-09-18T03:21:54;97646.63;;;19.05;100.00
53719;BME280;39616;48.872;9.390;2023-09-18T03:24:24;97636.38;;;19.02;100.00
53719;BME280;39616;48.872;9.390;2023-09-18T03:26:55;97646.44;;;18.95;100.00
53719;BME280;39616;48.872;9.390;2023-09-18T03:29:26;97642.34;;;18.85;100.00
53719;BME280;39616;48.872;9.390;2023-09-18T03:31:56;97636.72;;;18.74;100.00
53719;BME280;39616;48.872;9.390;2023-09-18T03:34:28;97645.19;;;18.69;100.00
53719;BME280;39616;48.872;9.390;2023-09-18T03:36:58;97639.66;;;18.66;100.00
53719;BME280;39616;48.872;9.390;2023-09-18T03:39:28;97640.69;;;18.57;100.00
53719;BME280;39616;48.872;9.390;2023-09-18T03:41:59;97641.72;;;18.49;100.00
53719;BME280;39616;48.872;9.390;2023-09-18T03:44:29;97641.66;;;18.46;100.00
53719;BME280;39616;48.872;9.390;2023-09-18T03:46:59;97647.09;;;18.42;100.00
53719;BME280;39616;48.872;9.390;2023-09-18T03:49:30;97654.75;;;18.33;100.00
53719;BME280;39616;48.872;9.390;2023-09-18T03:52:00;97652.75;;;18.30;100.00
53719;BME280;39616;48.872;9.390;2023-09-18T03:54:30;97660.09;;;18.26;100.00
53719;BME280;39616;48.872;9.390;2023-09-18T03:57:01;97674.25;;;18.28;100.00
53719;BME280;39616;48.872;9.390;2023-09-18T03:59:31;97700.84;;;18.24;100.00
53719;BME280;39616;48.872;9.390;2023-09-18T04:02:01;97724.38;;;18.25;100.00
53719;BME280;39616;48.872;9.390;2023-09-18T04:04:33;97731.03;;;18.24;100.00
53719;BME280;39616;48.872;9.390;2023-09-18T04:07:06;97740.50;;;18.26;100.00
53719;BME280;39616;48.872;9.390;2023-09-18T04:09:37;97749.59;;;18.30;100.00
53719;BME280;39616;48.872;9.390;2023-09-18T04:12:08;97755.16;;;18.34;100.00
53719;BME280;39616;48.872;9.390;2023-09-18T04:14:39;97759.97;;;18.41;100.00
53719;BME280;39616;48.872;9.390;2023-09-18T04:17:09;97751.94;;;18.51;100.00
53719;BME280;39616;48.872;9.390;2023-09-18T04:19:40;97722.41;;;18.64;100.00
53719;BME280;39616;48.872;9.390;2023-09-18T04:22:10;97720.75;;;18.79;100.00
53719;BME280;39616;48.872;9.390;2023-09-18T04:24:40;97731.19;;;18.93;100.00
53719;BME280;39616;48.872;9.390;2023-09-18T04:27:11;97744.25;;;18.99;100.00
53719;BME280;39616;48.872;9.390;2023-09-18T04:29:41;97743.94;;;19.04;100.00
53719;BME280;39616;48.872;9.390;2023-09-18T04:32:11;97742.00;;;19.05;100.00
53719;BME280;39616;48.872;9.390;2023-09-18T04:34:41;97730.28;;;19.08;100.00
53719;BME280;39616;48.872;9.390;2023-09-18T04:37:12;97716.94;;;19.10;100.00
53719;BME280;39616;48.872;9.390;2023-09-18T04:39:42;97719.41;;;19.15;100.00
53719;BME280;39616;48.872;9.390;2023-09-18T04:42:13;97709.63;;;19.18;100.00
53719;BME280;39616;48.872;9.390;2023-09-18T04:44:46;97700.53;;;19.14;100.00
53719;BME280;39616;48.872;9.390;2023-09-18T04:47:16;97685.59;;;19.11;100.00
53719;BME280;39616;48.872;9.390;2023-09-18T04:49:47;97655.25;;;19.04;100.00
53719;BME280;39616;48.872;9.390;2023-09-18T04:52:19;97627.59;;;18.93;100.00
53719;BME280;39616;48.872;9.390;2023-09-18T04:54:49;97617.28;;;18.87;100.00
53719;BME280;39616;48.872;9.390;2023-09-18T04:57:19;97617.16;;;18.79;100.00
53719;BME280;39616;48.872;9.390;2023-09-18T04:59:50;97610.81;;;18.75;100.00
53719;BME280;39616;48.872;9.390;2023-09-18T05:02:20;97601.75;;;18.71;100.00
53719;BME280;39616;48.872;9.390;2023-09-18T05:04:51;97615.78;;;18.70;100.00
53719;BME280;39616;48.872;9.390;2023-09-18T05:07:22;97629.25;;;18.75;100.00
53719;BME280;39616;48.872;9.390;2023-09-18T05:09:52;97646.09;;;18.73;100.00
53719;BME280;39616;48.872;9.390;2023-09-18T05:12:22;97639.00;;;18.72;100.00
53719;BME280;39616;48.872;9.390;2023-09-18T05:14:53;97646.59;;;18.79;100.00
53719;BME280;39616;48.872;9.390;2023-09-18T05:17:39;97653.34;;;18.85;100.00
53719;BME280;39616;48.872;9.390;2023-09-18T05:20:12;97644.69;;;18.83;100.00
53719;BME280;39616;48.872;9.390;2023-09-18T05:22:45;97653.72;;;18.83;100.00
53719;BME280;39616;48.872;9.390;2023-09-18T05:25:16;97650.19;;;18.83;100.00
53719;BME280;39616;48.872;9.390;2023-09-18T05:27:46;97649.00;;;18.84;100.00
53719;BME280;39616;48.872;9.390;2023-09-18T05:30:19;97644.13;;;18.74;100.00
53719;BME280;39616;48.872;9.390;2023-09-18T05:32:51;97641.28;;;18.70;100.00
53719;BME280;39616;48.872;9.390;2023-09-18T05:35:22;97643.72;;;18.72;100.00
53719;BME280;39616;48.872;9.390;2023-09-18T05:37:53;97646.47;;;18.72;100.00
53719;BME280;39616;48.872;9.390;2023-09-18T05:40:26;97661.44;;;18.74;100.00
53719;BME280;39616;48.872;9.390;2023-09-18T05:42:57;97681.38;;;18.71;100.00
53719;BME280;39616;48.872;9.390;2023-09-18T05:45:27;97676.19;;;18.70;100.00
53719;BME280;39616;48.872;9.390;2023-09-18T05:47:58;97682.16;;;18.72;100.00
53719;BME280;39616;48.872;9.390;2023-09-18T05:50:34;97656.28;;;18.73;100.00
53719;BME280;39616;48.872;9.390;2023-09-18T05:53:08;97669.28;;;18.76;100.00
53719;BME280;39616;48.872;9.390;2023-09-18T05:55:38;97669.34;;;18.79;100.00
53719;BME280;39616;48.872;9.390;2023-09-18T05:58:09;97673.00;;;18.87;100.00
53719;BME280;39616;48.872;9.390;2023-09-18T06:00:40;97676.59;;;18.91;100.00
53719;BME280;39616;48.872;9.390;2023-09-18T06:03:10;97666.53;;;18.99;100.00
53719;BME280;39616;48.872;9.390;2023-09-18T06:05:42;97668.22;;;19.07;100.00
53719;BME280;39616;48.872;9.390;2023-09-18T06:08:12;97675.44;;;19.15;100.00
53719;BME280;39616;48.872;9.390;2023-09-18T06:10:42;97670.09;;;19.26;100.00
53719;BME280;39616;48.872;9.390;2023-09-18T06:13:13;97663.13;;;19.32;100.00
53719;BME280;39616;48.872;9.390;2023-09-18T06:15:43;97668.78;;;19.43;100.00
53719;BME280;39616;48.872;9.390;2023-09-18T06:18:14;97657.16;;;19.53;100.00
53719;BME280;39616;48.872;9.390;2023-09-18T06:20:44;97659.94;;;19.57;100.00
53719;BME280;39616;48.872;9.390;2023-09-18T06:23:15;97660.34;;;19.59;100.00
53719;BME280;39616;48.872;9.390;2023-09-18T06:25:45;97655.75;;;19.63;100.00
53719;BME280;39616;48.872;9.390;2023-09-18T06:28:15;97646.72;;;19.66;100.00
53719;BME280;39616;48.872;9.390;2023-09-18T06:30:48;97655.75;;;19.63;100.00
53719;BME280;39616;48.872;9.390;2023-09-18T06:33:18;97656.53;;;19.63;100.00
53719;BME280;39616;48.872;9.390;2023-09-18T06:35:49;97653.41;;;19.65;100.00
53719;BME280;39616;48.872;9.390;2023-09-18T06:38:19;97656.94;;;19.65;98.90
53719;BME280;39616;48.872;9.390;2023-09-18T06:40:50;97667.59;;;19.67;98.31
53719;BME280;39616;48.872;9.390;2023-09-18T06:43:21;97676.28;;;19.72;98.93
53719;BME280;39616;48.872;9.390;2023-09-18T06:45:53;97683.84;;;19.79;96.58
53719;BME280;39616;48.872;9.390;2023-09-18T06:48:24;97690.94;;;19.80;95.36
53719;BME280;39616;48.872;9.390;2023-09-18T06:50:54;97682.72;;;19.84;95.37
53719;BME280;39616;48.872;9.390;2023-09-18T06:53:24;97694.56;;;19.88;94.98
53719;BME280;39616;48.872;9.390;2023-09-18T06:55:55;97691.13;;;19.94;94.42
53719;BME280;39616;48.872;9.390;2023-09-18T06:58:25;97691.13;;;19.94;95.66
53719;BME280;39616;48.872;9.390;2023-09-18T07:00:55;97694.56;;;19.88;98.01
53719;BME280;39616;48.872;9.390;2023-09-18T07:03:27;97695.06;;;19.93;95.55
53719;BME280;39616;48.872;9.390;2023-09-18T07:05:58;97687.97;;;19.92;95.87
53719;BME280;39616;48.872;9.390;2023-09-18T07:08:28;97698.94;;;19.89;97.88
53719;BME280;39616;48.872;9.390;2023-09-18T07:10:59;97700.03;;;19.84;96.97
53719;BME280;39616;48.872;9.390;2023-09-18T07:13:29;97707.97;;;19.89;96.82
53719;BME280;39616;48.872;9.390;2023-09-18T07:15:59;97705.34;;;20.00;94.98
53719;BME280;39616;48.872;9.390;2023-09-18T07:18:30;97700.03;;;20.14;92.97
53719;BME280;39616;48.872;9.390;2023-09-18T07:21:00;97706.47;;;20.25;95.80
53719;BME280;39616;48.872;9.390;2023-09-18T07:23:31;97707.28;;;20.30;98.03
53719;BME280;39616;48.872;9.390;2023-09-18T07:26:01;97701.78;;;20.30;97.95
53719;BME280;39616;48.872;9.390;2023-09-18T07:28:32;97710.09;;;20.33;97.69
53719;BME280;39616;48.872;9.390;2023-09-18T07:31:06;97700.66;;;20.34;97.93
53719;BME280;39616;48.872;9.390;2023-09-18T07:33:37;97697.16;;;20.37;97.02
53719;BME280;39616;48.872;9.390;2023-09-18T07:36:07;97697.94;;;20.38;95.78
53719;BME280;39616;48.872;9.390;2023-09-18T07:38:40;97693.22;;;20.38;93.04
53719;BME280;39616;48.872;9.390;2023-09-18T07:41:13;97706.22;;;20.38;94.85
53719;BME280;39616;48.872;9.390;2023-09-18T07:43:45;97715.72;;;20.44;96.21
53719;BME280;39616;48.872;9.390;2023-09-18T07:46:15;97729.50;;;20.44;95.67
53719;BME280;39616;48.872;9.390;2023-09-18T07:48:46;97746.06;;;20.47;97.41
53719;BME280;39616;48.872;9.390;2023-09-18T07:51:16;97760.88;;;20.39;95.42
53719;BME280;39616;48.872;9.390;2023-09-18T07:53:47;97767.94;;;20.37;91.79
53719;BME280;39616;48.872;9.390;2023-09-18T07:56:17;97779.22;;;20.55;93.59
53719;BME280;39616;48.872;9.390;2023-09-18T07:58:49;97772.69;;;20.70;95.43
53719;BME280;39616;48.872;9.390;2023-09-18T08:01:19;97769.75;;;20.89;93.93
53719;BME280;39616;48.872;9.390;2023-09-18T08:03:52;97778.88;;;20.97;95.57
53719;BME280;39616;48.872;9.390;2023-09-18T08:06:23;97770.28;;;21.06;94.54
53719;BME280;39616;48.872;9.390;2023-09-18T08:08:53;97774.47;;;21.30;92.22
53719;BME280;39616;48.872;9.390;2023-09-18T08:11:23;97771.97;;;21.55;90.45
53719;BME280;39616;48.872;9.390;2023-09-18T08:13:54;97770.91;;;21.74;87.70
53719;BME280;39616;48.872;9.390;2023-09-18T08:16:24;97780.94;;;22.00;86.58
53719;BME280;39616;48.872;9.390;2023-09-18T08:18:54;97771.66;;;22.29;82.12
53719;BME280;39616;48.872;9.390;2023-09-18T08:21:26;97778.81;;;22.45;82.92
53719;BME280;39616;48.872;9.390;2023-09-18T08:23:59;97780.44;;;22.53;83.05
53719;BME280;39616;48.872;9.390;2023-09-18T08:26:29;97772.94;;;22.57;82.69
53719;BME280;39616;48.872;9.390;2023-09-18T08:29:00;97785.22;;;22.63;81.66
53719;BME280;39616;48.872;9.390;2023-09-18T08:31:30;97793.13;;;22.61;79.40
53719;BME280;39616;48.872;9.390;2023-09-18T08:34:01;97798.97;;;22.52;80.18
53719;BME280;39616;48.872;9.390;2023-09-18T08:36:32;97823.75;;;22.34;80.98
53719;BME280;39616;48.872;9.390;2023-09-18T08:39:02;97837.78;;;22.08;80.37
53719;BME280;39616;48.872;9.390;2023-09-18T08:41:42;97838.84;;;21.92;81.32
53719;BME280;39616;48.872;9.390;2023-09-18T08:44:13;97833.25;;;21.82;83.32
53719;BME280;39616;48.872;9.390;2023-09-18T08:46:44;97838.31;;;21.73;82.12
53719;BME280;39616;48.872;9.390;2023-09-18T08:49:16;97833.72;;;21.46;80.77
53719;BME280;39616;48.872;9.390;2023-09-18T08:51:47;97838.78;;;21.37;78.99
53719;BME280;39616;48.872;9.390;2023-09-18T08:54:19;97831.69;;;21.36;77.41
53719;BME280;39616;48.872;9.390;2023-09-18T08:56:53;97843.91;;;21.39;78.84
53719;BME280;39616;48.872;9.390;2023-09-18T08:59:25;97850.00;;;21.18;79.28
53719;BME280;39616;48.872;9.390;2023-09-18T09:01:55;97862.94;;;21.14;78.26
53719;BME280;39616;48.872;9.390;2023-09-18T09:04:25;97847.13;;;21.07;80.45
53719;BME280;39616;48.872;9.390;2023-09-18T09:06:56;97842.31;;;21.01;80.47
53719;BME280;39616;48.872;9.390;2023-09-18T09:09:29;97839.91;;;20.95;81.25
53719;BME280;39616;48.872;9.390;2023-09-18T09:12:01;97841.41;;;20.89;84.01
53719;BME280;39616;48.872;9.390;2023-09-18T09:14:31;97839.25;;;20.75;86.36
53719;BME280;39616;48.872;9.390;2023-09-18T09:17:01;97858.00;;;20.63;89.39
53719;BME280;39616;48.872;9.390;2023-09-18T09:19:34;97860.34;;;20.34;94.89
53719;BME280;39616;48.872;9.390;2023-09-18T09:22:08;97878.41;;;20.05;97.56
53719;BME280;39616;48.872;9.390;2023-09-18T09:24:43;97890.53;;;19.77;100.00
53719;BME280;39616;48.872;9.390;2023-09-18T09:27:14;97890.22;;;19.60;100.00
53719;BME280;39616;48.872;9.390;2023-09-18T09:29:58;97893.66;;;19.34;100.00
53719;BME280;39616;48.872;9.390;2023-09-18T09:32:31;97866.41;;;19.25;100.00
53719;BME280;39616;48.872;9.390;2023-09-18T09:35:02;97861.72;;;19.06;100.00
53719;BME280;39616;48.872;9.390;2023-09-18T09:37:36;97857.03;;;19.06;100.00
53719;BME280;39616;48.872;9.390;2023-09-18T09:40:07;97856.88;;;19.19;100.00
53719;BME280;39616;48.872;9.390;2023-09-18T09:42:40;97856.75;;;19.35;100.00
53719;BME280;39616;48.872;9.390;2023-09-18T09:45:13;97853.50;;;19.29;100.00
53719;BME280;39616;48.872;9.390;2023-09-18T09:47:45;97848.00;;;19.29;100.00
53719;BME280;39616;48.872;9.390;2023-09-18T09:50:16;97853.31;;;19.18;100.00
53719;BME280;39616;48.872;9.390;2023-09-18T09:52:50;97856.25;;;19.29;100.00
53719;BME280;39616;48.872;9.390;2023-09-18T09:55:40;97832.16;;;19.19;100.00
53719;BME280;39616;48.872;9.390;2023-09-18T09:58:11;97836.41;;;19.39;100.00
53719;BME280;39616;48.872;9.390;2023-09-18T10:00:46;97828.84;;;19.55;100.00
53719;BME280;39616;48.872;9.390;2023-09-18T10:03:19;97816.38;;;19.62;100.00
53719;BME280;39616;48.872;9.390;2023-09-18T10:05:51;97820.81;;;19.66;100.00
53719;BME280;39616;48.872;9.390;2023-09-18T10:08:26;97822.75;;;19.66;100.00
53719;BME280;39616;48.872;9.390;2023-09-18T10:11:05;97839.09;;;19.59;100.00
53719;BME280;39616;48.872;9.390;2023-09-18T10:13:42;97837.78;;;19.72;100.00
53719;BME280;39616;48.872;9.390;2023-09-18T10:16:17;97856.66;;;19.73;100.00
53719;BME280;39616;48.872;9.390;2023-09-18T10:19:17;97847.56;;;19.69;100.00
53719;BME280;39616;48.872;9.390;2023-09-18T10:24:36;97849.13;;;19.47;100.00
53719;BME280;39616;48.872;9.390;2023-09-18T10:27:08;97854.56;;;19.44;100.00
53719;BME280;39616;48.872;9.390;2023-09-18T10:29:41;97850.03;;;19.32;100.00
53719;BME280;39616;48.872;9.390;2023-09-18T10:32:12;97855.34;;;19.21;100.00
53719;BME280;39616;48.872;9.390;2023-09-18T10:34:44;97869.00;;;19.18;100.00
53719;BME280;39616;48.872;9.390;2023-09-18T10:37:15;97885.50;;;19.18;100.00
53719;BME280;39616;48.872;9.390;2023-09-18T10:39:47;97902.59;;;19.08;100.00
53719;BME280;39616;48.872;9.390;2023-09-18T10:42:21;97909.88;;;19.00;100.00
53719;BME280;39616;48.872;9.390;2023-09-18T10:44:53;97908.66;;;18.78;100.00
53719;BME280;39616;48.872;9.390;2023-09-18T10:47:24;97906.19;;;18.73;100.00
53719;BME280;39616;48.872;9.390;2023-09-18T10:49:54;97913.53;;;18.69;100.00
53719;BME280;39616;48.872;9.390;2023-09-18T10:52:24;97903.63;;;18.64;100.00
53719;BME280;39616;48.872;9.390;2023-09-18T10:54:55;97910.63;;;18.62;100.00
53719;BME280;39616;48.872;9.390;2023-09-18T10:57:25;97913.94;;;18.51;100.00
53719;BME280;39616;48.872;9.390;2023-09-18T10:59:56;97910.16;;;18.40;100.00
53719;BME280;39616;48.872;9.390;2023-09-18T11:02:27;97902.28;;;18.39;100.00
53719;BME280;39616;48.872;9.390;2023-09-18T11:04:58;97886.91;;;18.34;100.00
53719;BME280;39616;48.872;9.390;2023-09-18T11:07:28;97873.09;;;18.30;100.00
53719;BME280;39616;48.872;9.390;2023-09-18T11:09:58;97855.03;;;18.29;100.00
53719;BME280;39616;48.872;9.390;2023-09-18T11:12:43;97860.78;;;18.24;100.00
53719;BME280;39616;48.872;9.390;2023-09-18T11:15:46;97847.59;;;18.30;100.00
53719;BME280;39616;48.872;9.390;2023-09-18T11:18:19;97844.13;;;18.33;100.00
53719;BME280;39616;48.872;9.390;2023-09-18T11:21:11;97831.84;;;18.27;100.00
53719;BME280;39616;48.872;9.390;2023-09-18T11:23:42;97837.25;;;18.23;100.00
53719;BME280;39616;48.872;9.390;2023-09-18T11:26:15;97837.75;;;18.29;100.00
53719;BME280;39616;48.872;9.390;2023-09-18T11:28:47;97838.63;;;18.33;100.00
53719;BME280;39616;48.872;9.390;2023-09-18T11:31:19;97843.69;;;18.31;100.00
53719;BME280;39616;48.872;9.390;2023-09-18T11:33:52;97838.72;;;18.37;100.00
53719;BME280;39616;48.872;9.390;2023-09-18T11:38:53;97877.75;;;18.46;100.00
53719;BME280;39616;48.872;9.390;2023-09-18T11:41:28;97883.38;;;18.53;100.00
53719;BME280;39616;48.872;9.390;2023-09-18T11:46:49;97884.03;;;18.66;100.00
53719;BME280;39616;48.872;9.390;2023-09-18T11:49:23;97869.28;;;18.54;100.00
53719;BME280;39616;48.872;9.390;2023-09-18T11:51:58;97834.69;;;18.50;100.00
53719;BME280;39616;48.872;9.390;2023-09-18T11:54:29;97821.59;;;18.43;100.00
53719;BME280;39616;48.872;9.390;2023-09-18T11:57:04;97817.75;;;18.48;100.00
53719;BME280;39616;48.872;9.390;2023-09-18T11:59:38;97848.75;;;18.48;100.00
53719;BME280;39616;48.872;9.390;2023-09-18T12:02:10;97854.56;;;18.63;100.00
53719;BME280;39616;48.872;9.390;2023-09-18T12:04:41;97866.56;;;18.74;100.00
53719;BME280;39616;48.872;9.390;2023-09-18T12:07:11;97860.16;;;18.86;100.00
53719;BME280;39616;48.872;9.390;2023-09-18T12:09:42;97847.84;;;18.99;100.00
53719;BME280;39616;48.872;9.390;2023-09-18T12:12:14;97856.59;;;19.04;100.00
53719;BME280;39616;48.872;9.390;2023-09-18T12:14:45;97856.31;;;19.10;98.39
53719;BME280;39616;48.872;9.390;2023-09-18T12:17:15;97873.00;;;19.20;100.00
53719;BME280;39616;48.872;9.390;2023-09-18T12:19:55;97873.06;;;19.24;100.00
53719;BME280;39616;48.872;9.390;2023-09-18T12:22:27;97881.97;;;19.40;100.00
53719;BME280;39616;48.872;9.390;2023-09-18T12:25:14;97883.47;;;19.57;100.00
53719;BME280;39616;48.872;9.390;2023-09-18T12:27:45;97890.28;;;19.63;100.00
53719;BME280;39616;48.872;9.390;2023-09-18T12:30:15;97892.25;;;19.63;100.00
53719;BME280;39616;48.872;9.390;2023-09-18T12:32:51;97870.66;;;19.65;100.00
53719;BME280;39616;48.872;9.390;2023-09-18T12:35:22;97839.69;;;19.68;100.00
53719;BME280;39616;48.872;9.390;2023-09-18T12:37:57;97846.34;;;19.67;99.75
53719;BME280;39616;48.872;9.390;2023-09-18T12:40:29;97860.03;;;19.63;98.66
53719;BME280;39616;48.872;9.390;2023-09-18T12:43:00;97861.53;;;19.61;100.00
53719;BME280;39616;48.872;9.390;2023-09-18T12:45:34;97858.88;;;19.64;98.63
53719;BME280;39616;48.872;9.390;2023-09-18T12:48:06;97854.59;;;19.67;99.31
53719;BME280;39616;48.872;9.390;2023-09-18T12:50:36;97852.03;;;19.77;100.00
53719;BME280;39616;48.872;9.390;2023-09-18T12:53:12;97847.56;;;19.92;99.63
53719;BME280;39616;48.872;9.390;2023-09-18T12:55:42;97850.97;;;20.12;95.65
53719;BME280;39616;48.872;9.390;2023-09-18T12:58:13;97850.56;;;20.37;93.96
53719;BME280;39616;48.872;9.390;2023-09-18T13:00:50;97865.22;;;20.74;89.09
53719;BME280;39616;48.872;9.390;2023-09-18T13:03:20;97869.97;;;21.08;90.04
53719;BME280;39616;48.872;9.390;2023-09-18T13:05:51;97870.69;;;21.38;88.01
53719;BME280;39616;48.872;9.390;2023-09-18T13:08:24;97868.84;;;21.50;86.00
53719;BME280;39616;48.872;9.390;2023-09-18T13:10:55;97873.34;;;21.68;84.65
53719;BME280;39616;48.872;9.390;2023-09-18T13:13:25;97862.31;;;21.68;84.75
53719;BME280;39616;48.872;9.390;2023-09-18T13:15:59;97868.69;;;21.80;84.10
53719;BME280;39616;48.872;9.390;2023-09-18T13:18:30;97860.22;;;22.03;84.72
53719;BME280;39616;48.872;9.390;2023-09-18T13:21:09;97851.59;;;22.11;80.01
53719;BME280;39616;48.872;9.390;2023-09-18T13:23:40;97864.63;;;22.11;82.94
53719;BME280;39616;48.872;9.390;2023-09-18T13:26:10;97848.41;;;22.06;78.58
53719;BME280;39616;48.872;9.390;2023-09-18T13:28:42;97831.78;;;21.95;78.10